Time;durP1;ratioP1;P1;durP2;ratioP2;P2;SDS_P1;SDS_P2;PMS_P1;PMS_P2;Temp;Humidity;BMP_temperature;BMP_pressure;BME280_temperature;BME280_humidity;BME280_pressure;Samples;Min_cycle;Max_cycle;Signal;HPM_P1;HPM_P2
2022/08/29 00:01:11;;;;;;;21.90;20.30;;;;;;;;;;5035418;28;20448;-85
2022/08/29 00:03:39;;;;;;;22.00;20.60;;;;;;;;;;5035559;28;20444;-86
2022/08/29 00:06:06;;;;;;;23.17;21.50;;;;;;;;;;5035513;28;20411;-85
2022/08/29 00:08:35;;;;;;;22.70;20.90;;;;;;;;;;5035543;28;20423;-85
2022/08/29 00:11:05;;;;;;;22.20;20.67;;;;;;;;;;5035592;28;20415;-86
2022/08/29 00:13:32;;;;;;;24.20;22.27;;;;;;;;;;5035409;28;20421;-86
2022/08/29 00:16:00;;;;;;;22.00;20.40;;;;;;;;;;5017343;28;20945;-86
2022/08/29 00:18:28;;;;;;;22.73;21.10;;;;;;;;;;5034961;28;20983;-86
2022/08/29 00:20:55;;;;;;;22.53;20.90;;;;;;;;;;5034994;28;20436;-85
2022/08/29 00:23:22;;;;;;;22.57;20.83;;;;;;;;;;5035143;28;20415;-86
2022/08/29 00:25:51;;;;;;;22.67;21.27;;;;;;;;;;5034197;28;20458;-86
2022/08/29 00:28:18;;;;;;;22.20;20.90;;;;;;;;;;5035096;28;20486;-87
2022/08/29 00:30:46;;;;;;;23.03;21.63;;;;;;;;;;5034677;28;20476;-86
2022/08/29 00:33:13;;;;;;;22.73;21.33;;;;;;;;;;5035038;28;20416;-86
2022/08/29 00:35:42;;;;;;;22.63;21.13;;;;;;;;;;5035083;28;20442;-86
2022/08/29 00:38:10;;;;;;;23.70;22.10;;;;;;;;;;5034527;28;20470;-86
2022/08/29 00:40:40;;;;;;;22.60;21.30;;;;;;;;;;5034989;28;20487;-87
2022/08/29 00:43:09;;;;;;;22.30;20.93;;;;;;;;;;5034659;28;20454;-87
2022/08/29 00:45:37;;;;;;;22.90;21.17;;;;;;;;;;5034703;28;20449;-86
2022/08/29 00:48:06;;;;;;;21.93;20.43;;;;;;;;;;5034487;28;20402;-86
2022/08/29 00:50:36;;;;;;;23.03;21.33;;;;;;;;;;5034589;28;20475;-86
2022/08/29 00:53:05;;;;;;;22.30;20.80;;;;;;;;;;5035035;28;20411;-86
2022/08/29 00:55:34;;;;;;;22.83;20.93;;;;;;;;;;5034497;28;20805;-86
2022/08/29 00:58:03;;;;;;;22.80;21.00;;;;;;;;;;5034628;28;20480;-86
2022/08/29 01:00:32;;;;;;;23.40;21.33;;;;;;;;;;5034794;28;20442;-86
2022/08/29 01:03:01;;;;;;;22.30;20.90;;;;;;;;;;5034650;28;20417;-86
2022/08/29 01:05:29;;;;;;;21.93;20.53;;;;;;;;;;5034501;28;20798;-86
2022/08/29 01:07:56;;;;;;;150.07;92.83;;;;;;;;;;5034270;28;20475;-86
2022/08/29 01:13:10;;;;;;;22.23;20.93;;;;;;;;;;5034120;28;20416;-84
2022/08/29 01:15:39;;;;;;;24.17;22.33;;;;;;;;;;5033918;28;20419;-86
2022/08/29 01:18:07;;;;;;;22.40;20.90;;;;;;;;;;5034068;28;20435;-85
2022/08/29 01:20:39;;;;;;;22.00;20.47;;;;;;;;;;5034032;28;20943;-86
2022/08/29 01:23:10;;;;;;;21.43;20.13;;;;;;;;;;5033943;28;20674;-86
2022/08/29 01:25:40;;;;;;;21.93;20.33;;;;;;;;;;5033609;28;20473;-85
2022/08/29 01:28:10;;;;;;;22.73;21.20;;;;;;;;;;5034271;28;20491;-86
2022/08/29 01:30:38;;;;;;;22.70;21.30;;;;;;;;;;5033695;28;21003;-86
2022/08/29 01:33:05;;;;;;;22.67;21.27;;;;;;;;;;5033719;28;20434;-86
2022/08/29 01:35:33;;;;;;;22.00;20.50;;;;;;;;;;5034055;28;20508;-86
2022/08/29 01:38:00;;;;;;;23.70;21.77;;;;;;;;;;5032934;28;20834;-86
2022/08/29 01:40:29;;;;;;;22.43;21.03;;;;;;;;;;5034053;28;20414;-86
2022/08/29 01:42:58;;;;;;;21.77;20.27;;;;;;;;;;5033900;28;20406;-86
2022/08/29 01:45:25;;;;;;;21.90;20.60;;;;;;;;;;5033697;28;20407;-86
2022/08/29 01:47:52;;;;;;;22.30;20.67;;;;;;;;;;5033694;28;20965;-86
2022/08/29 01:50:20;;;;;;;21.80;20.50;;;;;;;;;;5033495;28;20448;-85
2022/08/29 01:52:47;;;;;;;21.43;20.00;;;;;;;;;;5033796;28;20414;-86
2022/08/29 01:55:15;;;;;;;22.90;21.27;;;;;;;;;;5033830;28;20415;-86
2022/08/29 01:57:42;;;;;;;22.30;20.90;;;;;;;;;;5016037;28;20427;-85
2022/08/29 02:00:12;;;;;;;21.90;20.50;;;;;;;;;;5033537;28;20418;-86
2022/08/29 02:02:40;;;;;;;22.33;20.83;;;;;;;;;;5033796;28;20447;-86
2022/08/29 02:05:08;;;;;;;21.80;20.40;;;;;;;;;;5033860;28;20450;-86
2022/08/29 02:07:35;;;;;;;21.77;20.47;;;;;;;;;;5033590;28;20473;-86
2022/08/29 02:10:03;;;;;;;22.20;20.50;;;;;;;;;;5033434;28;20550;-86
2022/08/29 02:12:30;;;;;;;22.30;20.80;;;;;;;;;;5033664;28;20437;-86
2022/08/29 02:14:59;;;;;;;22.00;20.50;;;;;;;;;;5033418;28;20440;-86
2022/08/29 02:17:28;;;;;;;22.80;21.40;;;;;;;;;;5033408;28;20443;-86
2022/08/29 02:19:55;;;;;;;22.70;21.23;;;;;;;;;;5033307;28;20463;-86
2022/08/29 02:22:23;;;;;;;23.30;21.80;;;;;;;;;;5033620;28;20462;-86
2022/08/29 02:24:50;;;;;;;23.10;21.53;;;;;;;;;;5033477;28;20438;-86
2022/08/29 02:27:17;;;;;;;23.47;21.60;;;;;;;;;;5033424;28;20434;-86
2022/08/29 02:29:45;;;;;;;22.97;21.27;;;;;;;;;;5033413;28;20443;-84
2022/08/29 02:32:13;;;;;;;23.33;21.63;;;;;;;;;;5033201;28;20439;-86
2022/08/29 02:34:43;;;;;;;23.00;21.33;;;;;;;;;;5033447;28;20419;-86
2022/08/29 02:37:10;;;;;;;22.37;21.07;;;;;;;;;;5033329;28;20452;-86
2022/08/29 02:39:37;;;;;;;22.60;21.00;;;;;;;;;;5033435;28;20809;-86
2022/08/29 02:42:05;;;;;;;22.93;21.23;;;;;;;;;;5033434;28;20406;-86
2022/08/29 02:44:33;;;;;;;23.23;21.73;;;;;;;;;;5033570;28;20406;-86
2022/08/29 02:47:00;;;;;;;22.90;21.40;;;;;;;;;;5015816;28;20505;-86
2022/08/29 02:49:27;;;;;;;21.80;20.40;;;;;;;;;;5034554;28;20486;-86
2022/08/29 02:51:56;;;;;;;22.97;21.57;;;;;;;;;;5036820;28;20796;-85
2022/08/29 02:54:24;;;;;;;21.53;20.27;;;;;;;;;;5036969;28;20445;-86
2022/08/29 02:56:51;;;;;;;22.40;20.77;;;;;;;;;;5036707;28;21185;-85
2022/08/29 02:59:18;;;;;;;22.50;20.80;;;;;;;;;;5036861;28;20454;-86
2022/08/29 03:01:46;;;;;;;23.47;21.30;;;;;;;;;;5036891;28;20884;-86
2022/08/29 03:04:13;;;;;;;22.30;20.87;;;;;;;;;;5036753;28;20502;-86
2022/08/29 03:06:40;;;;;;;22.50;21.07;;;;;;;;;;5036771;28;20445;-86
2022/08/29 03:09:09;;;;;;;23.20;21.67;;;;;;;;;;5036409;28;20452;-86
2022/08/29 03:11:37;;;;;;;22.00;20.70;;;;;;;;;;5036315;28;20944;-86
2022/08/29 03:14:04;;;;;;;22.23;20.93;;;;;;;;;;5036374;28;20448;-86
2022/08/29 03:16:32;;;;;;;22.47;20.93;;;;;;;;;;5036651;28;20836;-86
2022/08/29 03:18:59;;;;;;;22.70;21.10;;;;;;;;;;5036299;28;20893;-86
2022/08/29 03:21:27;;;;;;;21.23;19.93;;;;;;;;;;5036155;28;20447;-86
2022/08/29 03:23:56;;;;;;;22.30;20.83;;;;;;;;;;5036035;28;20912;-86
2022/08/29 03:26:25;;;;;;;21.43;20.00;;;;;;;;;;5018024;28;21039;-86
2022/08/29 03:28:53;;;;;;;22.77;20.87;;;;;;;;;;5036082;28;20544;-86
2022/08/29 03:31:20;;;;;;;22.97;21.23;;;;;;;;;;5035804;28;20526;-85
2022/08/29 03:33:48;;;;;;;21.90;20.40;;;;;;;;;;5036166;28;20414;-86
2022/08/29 03:36:15;;;;;;;23.57;21.70;;;;;;;;;;5035963;28;20471;-86
2022/08/29 03:38:42;;;;;;;21.67;20.37;;;;;;;;;;5018198;28;20451;-85
2022/08/29 03:41:10;;;;;;;24.00;22.10;;;;;;;;;;5036216;28;20759;-86
2022/08/29 03:43:39;;;;;;;24.53;22.93;;;;;;;;;;5036004;28;20432;-85
2022/08/29 03:46:06;;;;;;;24.87;22.93;;;;;;;;;;5036140;28;20786;-85
2022/08/29 03:48:34;;;;;;;21.77;20.40;;;;;;;;;;5035547;28;20457;-85
2022/08/29 03:51:01;;;;;;;22.17;20.77;;;;;;;;;;5035933;28;20442;-86
2022/08/29 03:53:29;;;;;;;21.57;20.17;;;;;;;;;;5035999;28;20483;-86
2022/08/29 03:55:56;;;;;;;22.80;21.00;;;;;;;;;;5035791;28;20414;-86
2022/08/29 03:58:23;;;;;;;22.73;21.13;;;;;;;;;;5035561;28;20405;-86
2022/08/29 04:00:53;;;;;;;23.03;21.50;;;;;;;;;;5034626;28;20406;-86
2022/08/29 04:03:20;;;;;;;21.77;20.37;;;;;;;;;;5035430;28;20490;-85
2022/08/29 04:05:48;;;;;;;22.77;21.07;;;;;;;;;;5035306;28;20447;-87
2022/08/29 04:08:15;;;;;;;22.50;20.93;;;;;;;;;;5035535;28;20472;-86
2022/08/29 04:10:43;;;;;;;22.57;20.83;;;;;;;;;;5035593;28;20813;-86
2022/08/29 04:13:10;;;;;;;22.63;20.70;;;;;;;;;;5035545;28;20509;-85
2022/08/29 04:15:39;;;;;;;21.73;20.43;;;;;;;;;;5035647;28;20478;-86
2022/08/29 04:18:09;;;;;;;22.00;20.50;;;;;;;;;;5035554;28;20480;-86
2022/08/29 04:20:38;;;;;;;22.50;21.00;;;;;;;;;;5035640;28;20813;-86
2022/08/29 04:23:06;;;;;;;23.97;21.97;;;;;;;;;;5035455;28;20765;-86
2022/08/29 04:25:35;;;;;;;22.80;21.10;;;;;;;;;;5034742;28;20482;-85
2022/08/29 04:28:03;;;;;;;22.90;21.40;;;;;;;;;;5017335;28;20419;-86
2022/08/29 04:30:31;;;;;;;23.30;21.20;;;;;;;;;;5035275;28;20444;-86
2022/08/29 04:32:58;;;;;;;24.00;22.20;;;;;;;;;;5035319;28;20444;-86
2022/08/29 04:35:27;;;;;;;23.07;21.47;;;;;;;;;;5034868;28;20893;-85
2022/08/29 04:37:54;;;;;;;22.00;20.57;;;;;;;;;;5017390;28;20828;-86
2022/08/29 04:40:23;;;;;;;22.73;21.20;;;;;;;;;;5034863;28;20460;-86
2022/08/29 04:42:51;;;;;;;22.60;20.73;;;;;;;;;;5035021;28;20415;-87
2022/08/29 04:45:19;;;;;;;22.83;21.23;;;;;;;;;;5034701;28;20476;-87
2022/08/29 04:47:47;;;;;;;23.07;21.13;;;;;;;;;;5034597;28;20782;-85
2022/08/29 04:50:17;;;;;;;23.17;21.70;;;;;;;;;;5019018;28;20915;-96
2022/08/29 04:52:45;;;;;;;23.90;22.10;;;;;;;;;;5035975;28;20410;-96
2022/08/29 04:55:13;;;;;;;22.37;20.87;;;;;;;;;;5035642;28;20432;-96
2022/08/29 04:57:41;;;;;;;24.33;22.33;;;;;;;;;;5018245;28;20448;-86
2022/08/29 05:00:11;;;;;;;22.77;21.27;;;;;;;;;;5034762;28;20421;-86
2022/08/29 05:02:40;;;;;;;22.77;21.07;;;;;;;;;;5016963;28;20455;-96
2022/08/29 05:05:08;;;;;;;22.67;21.07;;;;;;;;;;5048403;28;20439;-96
2022/08/29 05:07:36;;;;;;;23.03;21.47;;;;;;;;;;5030196;28;20455;-96
2022/08/29 05:10:06;;;;;;;22.83;21.43;;;;;;;;;;5040448;28;20499;-85
2022/08/29 05:12:33;;;;;;;23.00;21.50;;;;;;;;;;5033815;28;20482;-86
2022/08/29 05:15:01;;;;;;;23.30;21.70;;;;;;;;;;5034223;28;20447;-87
2022/08/29 05:17:28;;;;;;;22.63;21.10;;;;;;;;;;5035623;28;20443;-96
2022/08/29 05:19:56;;;;;;;22.20;20.70;;;;;;;;;;5035064;28;20421;-96
2022/08/29 05:22:23;;;;;;;24.27;21.80;;;;;;;;;;5034724;28;20409;-96
2022/08/29 05:24:52;;;;;;;22.97;21.47;;;;;;;;;;5034886;28;20831;-96
2022/08/29 05:27:21;;;;;;;23.73;21.73;;;;;;;;;;5035082;28;20515;-96
2022/08/29 05:29:50;;;;;;;23.97;22.03;;;;;;;;;;5035051;28;20467;-96
2022/08/29 05:32:18;;;;;;;22.60;21.20;;;;;;;;;;5034985;28;20414;-96
2022/08/29 05:34:46;;;;;;;23.67;22.03;;;;;;;;;;5034893;28;20531;-96
2022/08/29 05:37:15;;;;;;;23.63;21.90;;;;;;;;;;5035234;28;20414;-96
2022/08/29 05:39:43;;;;;;;22.50;21.10;;;;;;;;;;5034717;28;20415;-96
2022/08/29 05:42:11;;;;;;;25.30;23.13;;;;;;;;;;5034837;28;20445;-96
2022/08/29 05:44:40;;;;;;;23.40;22.00;;;;;;;;;;5035048;28;20411;-96
2022/08/29 05:47:09;;;;;;;23.83;22.10;;;;;;;;;;5034887;28;20501;-96
2022/08/29 05:49:37;;;;;;;23.57;22.07;;;;;;;;;;5035023;28;20453;-96
2022/08/29 05:52:05;;;;;;;23.63;21.70;;;;;;;;;;5036986;28;20476;-96
2022/08/29 05:54:34;;;;;;;22.60;21.10;;;;;;;;;;5039480;28;20502;-96
2022/08/29 05:57:01;;;;;;;24.77;22.83;;;;;;;;;;5034980;28;20425;-96
2022/08/29 05:59:28;;;;;;;25.20;22.90;;;;;;;;;;5017461;28;20443;-96
2022/08/29 06:01:57;;;;;;;23.67;22.17;;;;;;;;;;5017252;28;20508;-96
2022/08/29 06:04:25;;;;;;;23.97;22.17;;;;;;;;;;5034778;28;20509;-96
2022/08/29 06:06:52;;;;;;;24.40;22.60;;;;;;;;;;5016839;28;20472;-96
2022/08/29 06:09:20;;;;;;;25.00;22.97;;;;;;;;;;5034461;28;20463;-96
2022/08/29 06:11:48;;;;;;;24.80;22.93;;;;;;;;;;5034364;28;20436;-95
2022/08/29 06:14:16;;;;;;;23.83;22.00;;;;;;;;;;5034385;28;20921;-96
2022/08/29 06:16:43;;;;;;;24.10;22.50;;;;;;;;;;5034499;28;20463;-93
2022/08/29 06:19:12;;;;;;;23.30;21.80;;;;;;;;;;5034142;28;20409;-91
2022/08/29 06:21:40;;;;;;;25.20;23.10;;;;;;;;;;5033853;28;20426;-91
2022/08/29 06:24:07;;;;;;;25.07;23.13;;;;;;;;;;5034907;28;20430;-92
2022/08/29 06:26:35;;;;;;;25.40;23.43;;;;;;;;;;5037473;28;20450;-93
2022/08/29 06:29:04;;;;;;;25.53;23.63;;;;;;;;;;5038020;28;20473;-95
2022/08/29 06:31:32;;;;;;;24.43;22.23;;;;;;;;;;5038291;28;20435;-93
2022/08/29 06:34:00;;;;;;;25.73;23.83;;;;;;;;;;5020416;28;20921;-91
2022/08/29 06:36:30;;;;;;;23.90;22.10;;;;;;;;;;5038173;28;20441;-94
2022/08/29 06:38:58;;;;;;;24.50;22.40;;;;;;;;;;5037877;28;20981;-95
2022/08/29 06:41:26;;;;;;;24.80;22.77;;;;;;;;;;5020214;28;20475;-94
2022/08/29 06:43:55;;;;;;;24.80;23.00;;;;;;;;;;5038016;28;20434;-94
2022/08/29 06:46:24;;;;;;;25.20;23.50;;;;;;;;;;5037937;28;20422;-94
2022/08/29 06:48:52;;;;;;;23.33;21.73;;;;;;;;;;5038210;28;20971;-93
2022/08/29 06:51:20;;;;;;;25.00;23.10;;;;;;;;;;5037315;28;20512;-93
2022/08/29 06:53:49;;;;;;;24.47;22.67;;;;;;;;;;5038000;28;20411;-94
2022/08/29 06:56:16;;;;;;;24.47;22.47;;;;;;;;;;5019674;28;20466;-95
2022/08/29 06:58:44;;;;;;;22.87;21.37;;;;;;;;;;5037376;28;20418;-93
2022/08/29 07:01:12;;;;;;;22.80;21.30;;;;;;;;;;5037687;28;20407;-95
2022/08/29 07:03:41;;;;;;;23.80;22.10;;;;;;;;;;5037357;28;20420;-93
2022/08/29 07:06:09;;;;;;;23.70;21.80;;;;;;;;;;5037449;28;20482;-93
2022/08/29 07:08:36;;;;;;;24.37;22.60;;;;;;;;;;5037616;28;20415;-93
2022/08/29 07:11:05;;;;;;;23.70;21.90;;;;;;;;;;5037053;28;21004;-92
2022/08/29 07:13:34;;;;;;;25.27;23.37;;;;;;;;;;5037511;28;20767;-92
2022/08/29 07:16:01;;;;;;;24.00;22.27;;;;;;;;;;5037416;28;20462;-91
2022/08/29 07:18:29;;;;;;;26.23;23.50;;;;;;;;;;5037240;28;20411;-91
2022/08/29 07:20:56;;;;;;;23.47;21.73;;;;;;;;;;5037262;28;20453;-92
2022/08/29 07:23:24;;;;;;;24.77;23.07;;;;;;;;;;5037811;28;20925;-93
2022/08/29 07:25:51;;;;;;;24.30;22.60;;;;;;;;;;5021151;28;20463;-92
2022/08/29 07:28:20;;;;;;;23.53;21.83;;;;;;;;;;5037287;28;20448;-90
2022/08/29 07:30:47;;;;;;;23.97;22.17;;;;;;;;;;5041299;28;20463;-92
2022/08/29 07:33:14;;;;;;;23.27;21.53;;;;;;;;;;5037282;28;20422;-88
2022/08/29 07:35:42;;;;;;;24.77;22.80;;;;;;;;;;5036717;28;20449;-92
2022/08/29 07:38:09;;;;;;;24.47;22.43;;;;;;;;;;5037307;28;20439;-92
2022/08/29 07:40:36;;;;;;;23.40;21.60;;;;;;;;;;5036919;28;20434;-94
2022/08/29 07:43:04;;;;;;;23.93;22.30;;;;;;;;;;5036846;28;20913;-92
2022/08/29 07:45:33;;;;;;;23.57;21.93;;;;;;;;;;5036488;28;20434;-92
2022/08/29 07:48:00;;;;;;;23.67;21.80;;;;;;;;;;5035932;28;20498;-88
2022/08/29 07:50:28;;;;;;;24.53;22.73;;;;;;;;;;5035879;28;20569;-88
2022/08/29 07:52:55;;;;;;;25.30;23.50;;;;;;;;;;5036843;28;20436;-92
2022/08/29 07:55:35;;;;;;;25.70;23.77;;;;;;;;;;5036141;28;20411;-94
2022/08/29 07:58:03;;;;;;;24.40;22.70;;;;;;;;;;5036404;28;20435;-91
2022/08/29 08:00:31;;;;;;;24.80;23.00;;;;;;;;;;5040453;28;20429;-95
2022/08/29 08:03:00;;;;;;;24.77;22.63;;;;;;;;;;5037548;28;20438;-95
2022/08/29 08:05:28;;;;;;;24.83;22.53;;;;;;;;;;5037904;28;20985;-83
2022/08/29 08:07:55;;;;;;;24.20;22.43;;;;;;;;;;5062924;22;20462;-90
2022/08/29 08:10:23;;;;;;;24.60;22.90;;;;;;;;;;5062173;28;20455;-92
2022/08/29 08:12:50;;;;;;;25.77;23.70;;;;;;;;;;5039112;28;20438;-95
2022/08/29 08:15:20;;;;;;;24.50;22.80;;;;;;;;;;5055337;28;20445;-82
2022/08/29 08:17:48;;;;;;;24.40;22.70;;;;;;;;;;5055867;28;20414;-87
2022/08/29 08:20:16;;;;;;;24.53;22.83;;;;;;;;;;5055432;28;20413;-91
2022/08/29 08:22:44;;;;;;;23.70;22.10;;;;;;;;;;5055358;28;20430;-90
2022/08/29 08:25:11;;;;;;;23.90;22.20;;;;;;;;;;5055901;28;20825;-90
2022/08/29 08:27:39;;;;;;;23.03;21.63;;;;;;;;;;5038130;28;20445;-89
2022/08/29 08:30:07;;;;;;;24.10;22.30;;;;;;;;;;5055359;28;20479;-91
2022/08/29 08:32:34;;;;;;;23.03;21.57;;;;;;;;;;5055603;28;20428;-90
2022/08/29 08:35:02;;;;;;;23.50;21.80;;;;;;;;;;5055289;28;20420;-90
2022/08/29 08:37:30;;;;;;;24.57;23.07;;;;;;;;;;5055536;28;20411;-91
2022/08/29 08:39:58;;;;;;;24.30;22.70;;;;;;;;;;5055465;28;20423;-90
2022/08/29 08:42:31;;;;;;;26.67;24.60;;;;;;;;;;5055101;28;20903;-89
2022/08/29 08:45:04;;;;;;;24.30;22.60;;;;;;;;;;5055285;28;20920;-91
2022/08/29 08:47:33;;;;;;;24.50;22.77;;;;;;;;;;5036767;28;20455;-90
2022/08/29 08:50:02;;;;;;;23.93;22.00;;;;;;;;;;5055025;28;20846;-90
2022/08/29 08:52:41;;;;;;;23.50;22.00;;;;;;;;;;5054918;28;20407;-89
2022/08/29 08:55:17;;;;;;;24.07;21.97;;;;;;;;;;5054888;28;20567;-89
2022/08/29 08:57:52;;;;;;;23.33;21.67;;;;;;;;;;5054425;28;20469;-89
2022/08/29 09:00:20;;;;;;;23.10;21.60;;;;;;;;;;5054034;28;20476;-89
2022/08/29 09:02:57;;;;;;;23.23;21.57;;;;;;;;;;5054568;28;20506;-88
2022/08/29 09:05:32;;;;;;;24.13;22.20;;;;;;;;;;5054389;28;20851;-90
2022/08/29 09:08:06;;;;;;;22.67;20.67;;;;;;;;;;5054357;28;20545;-89
2022/08/29 09:10:43;;;;;;;23.87;22.17;;;;;;;;;;5054385;28;20453;-90
2022/08/29 09:13:14;;;;;;;24.33;22.70;;;;;;;;;;5054514;28;20438;-89
2022/08/29 09:15:44;;;;;;;24.10;22.07;;;;;;;;;;5054336;28;20498;-89
2022/08/29 09:18:15;;;;;;;22.73;21.23;;;;;;;;;;5054395;28;20438;-90
2022/08/29 09:20:45;;;;;;;24.27;22.07;;;;;;;;;;5054664;28;20437;-90
2022/08/29 09:23:24;;;;;;;22.63;21.13;;;;;;;;;;5054309;28;20452;-89
2022/08/29 09:25:53;;;;;;;23.77;22.00;;;;;;;;;;5054040;28;20870;-89
2022/08/29 09:28:22;;;;;;;22.10;20.70;;;;;;;;;;5054146;28;20412;-89
2022/08/29 09:31:05;;;;;;;23.43;21.80;;;;;;;;;;5053950;28;20482;-89
2022/08/29 09:33:41;;;;;;;24.23;22.33;;;;;;;;;;5053658;28;20451;-89
2022/08/29 09:36:13;;;;;;;24.57;22.43;;;;;;;;;;5054216;28;20448;-89
2022/08/29 09:38:43;;;;;;;22.27;20.90;;;;;;;;;;5053935;28;20784;-88
2022/08/29 09:41:14;;;;;;;23.67;21.80;;;;;;;;;;5053639;28;20425;-88
2022/08/29 09:43:48;;;;;;;23.77;22.10;;;;;;;;;;5053906;28;20493;-89
2022/08/29 09:46:17;;;;;;;23.60;22.00;;;;;;;;;;5053997;28;20902;-89
2022/08/29 09:48:46;;;;;;;23.93;22.33;;;;;;;;;;5054256;28;20440;-88
2022/08/29 09:51:17;;;;;;;24.07;22.37;;;;;;;;;;5053592;28;20553;-89
2022/08/29 09:53:45;;;;;;;23.13;21.60;;;;;;;;;;5054357;28;20768;-89
2022/08/29 09:56:17;;;;;;;22.77;21.17;;;;;;;;;;5036019;28;20842;-80
2022/08/29 09:58:45;;;;;;;23.47;21.80;;;;;;;;;;5052532;28;20445;-79
2022/08/29 10:01:17;;;;;;;24.33;22.33;;;;;;;;;;5056581;28;20766;-79
2022/08/29 10:03:53;;;;;;;24.37;22.03;;;;;;;;;;5056407;28;20881;-79
2022/08/29 10:06:22;;;;;;;23.97;22.40;;;;;;;;;;5056842;28;20437;-79
2022/08/29 10:08:58;;;;;;;22.80;21.40;;;;;;;;;;5056221;28;20492;-79
2022/08/29 10:11:28;;;;;;;23.67;21.90;;;;;;;;;;5056293;28;20479;-79
2022/08/29 10:13:57;;;;;;;25.83;24.00;;;;;;;;;;5056263;28;20480;-79
2022/08/29 10:16:31;;;;;;;23.87;22.07;;;;;;;;;;5039015;28;20428;-80
2022/08/29 10:19:01;;;;;;;24.40;22.83;;;;;;;;;;5056494;28;20420;-80
2022/08/29 10:21:32;;;;;;;24.60;22.90;;;;;;;;;;5056180;28;20431;-74
2022/08/29 10:24:06;;;;;;;25.20;23.30;;;;;;;;;;5056163;28;20774;-78
2022/08/29 10:26:36;;;;;;;24.37;22.50;;;;;;;;;;5056360;28;20933;-80
2022/08/29 10:29:11;;;;;;;23.67;21.83;;;;;;;;;;5054672;28;20444;-75
2022/08/29 10:31:44;;;;;;;23.70;22.00;;;;;;;;;;5051834;28;20534;-77
2022/08/29 10:34:21;;;;;;;23.80;21.93;;;;;;;;;;5046574;28;20444;-78
2022/08/29 10:36:51;;;;;;;26.17;23.60;;;;;;;;;;5036384;28;20430;-78
2022/08/29 10:39:25;;;;;;;24.23;22.40;;;;;;;;;;5035952;28;20439;-79
2022/08/29 10:41:56;;;;;;;23.27;21.50;;;;;;;;;;5036114;28;20441;-78
2022/08/29 10:44:27;;;;;;;25.47;22.90;;;;;;;;;;5035732;28;20906;-79
2022/08/29 10:46:59;;;;;;;24.27;22.73;;;;;;;;;;5035744;28;20863;-78
2022/08/29 10:49:34;;;;;;;24.30;22.70;;;;;;;;;;5036037;28;20437;-79
2022/08/29 10:52:04;;;;;;;24.83;23.33;;;;;;;;;;5035892;28;20489;-78
2022/08/29 10:54:38;;;;;;;24.20;22.80;;;;;;;;;;5035624;28;20468;-78
2022/08/29 10:57:08;;;;;;;26.00;23.90;;;;;;;;;;5035842;28;20421;-78
2022/08/29 10:59:41;;;;;;;23.93;22.23;;;;;;;;;;5035816;28;20457;-77
2022/08/29 11:02:12;;;;;;;23.87;22.40;;;;;;;;;;5035380;28;20786;-78
2022/08/29 11:04:41;;;;;;;22.77;21.47;;;;;;;;;;5035443;28;20464;-78
2022/08/29 11:07:12;;;;;;;23.70;22.10;;;;;;;;;;5035414;28;20484;-79
2022/08/29 11:09:42;;;;;;;24.60;22.60;;;;;;;;;;5034961;28;20417;-79
2022/08/29 11:12:12;;;;;;;23.20;21.70;;;;;;;;;;5035208;28;20469;-78
2022/08/29 11:14:41;;;;;;;25.30;23.63;;;;;;;;;;5035056;28;20451;-77
2022/08/29 11:17:10;;;;;;;23.30;21.87;;;;;;;;;;5034709;28;20443;-78
2022/08/29 11:19:44;;;;;;;23.77;22.43;;;;;;;;;;5034954;28;20417;-78
2022/08/29 11:22:15;;;;;;;24.20;22.80;;;;;;;;;;5035029;28;20414;-84
2022/08/29 11:24:45;;;;;;;23.63;22.07;;;;;;;;;;5034727;28;20522;-82
2022/08/29 11:27:20;;;;;;;24.40;22.70;;;;;;;;;;5034896;28;20862;-83
2022/08/29 11:29:49;;;;;;;23.50;21.90;;;;;;;;;;5017472;28;20583;-82
2022/08/29 11:32:19;;;;;;;24.50;22.80;;;;;;;;;;5035146;28;20536;-82
2022/08/29 11:34:56;;;;;;;24.83;23.23;;;;;;;;;;5034990;28;20451;-83
2022/08/29 11:37:35;;;;;;;23.30;21.87;;;;;;;;;;5035017;28;20434;-82
2022/08/29 11:40:08;;;;;;;24.37;22.90;;;;;;;;;;5035035;28;20413;-83
2022/08/29 11:42:37;;;;;;;24.50;23.00;;;;;;;;;;5034955;28;20465;-82
2022/08/29 11:45:06;;;;;;;23.27;21.77;;;;;;;;;;5035159;28;20746;-82
2022/08/29 11:47:38;;;;;;;23.40;22.00;;;;;;;;;;5035160;28;20421;-77
2022/08/29 11:50:08;;;;;;;26.77;24.50;;;;;;;;;;5034822;28;20471;-77
2022/08/29 11:52:36;;;;;;;23.20;21.70;;;;;;;;;;5034879;28;20454;-78
2022/08/29 11:55:23;;;;;;;24.07;22.33;;;;;;;;;;5034784;28;20501;-77
2022/08/29 11:57:53;;;;;;;23.70;22.20;;;;;;;;;;5034821;28;20751;-78
2022/08/29 12:00:25;;;;;;;23.57;22.27;;;;;;;;;;5034346;28;20456;-78
2022/08/29 12:02:53;;;;;;;26.63;24.60;;;;;;;;;;5034341;28;20784;-77
2022/08/29 12:05:54;;;;;;;23.27;21.67;;;;;;;;;;5017009;28;20777;-78
2022/08/29 12:08:30;;;;;;;25.30;23.60;;;;;;;;;;4973278;28;20476;-76
2022/08/29 12:10:59;;;;;;;24.67;23.27;;;;;;;;;;4973246;28;20998;-77
2022/08/29 12:13:44;;;;;;;26.17;24.60;;;;;;;;;;4973242;28;20454;-78
2022/08/29 12:16:12;;;;;;;24.70;23.20;;;;;;;;;;4961370;28;20968;-82
2022/08/29 12:18:43;;;;;;;24.90;23.20;;;;;;;;;;4974511;28;20468;-76
2022/08/29 12:21:29;;;;;;;25.80;24.10;;;;;;;;;;4972822;28;20444;-76
2022/08/29 12:23:56;;;;;;;25.53;23.87;;;;;;;;;;4973009;28;20437;-77
2022/08/29 12:26:41;;;;;;;23.77;22.07;;;;;;;;;;4972930;28;20918;-75
2022/08/29 12:29:16;;;;;;;23.67;22.20;;;;;;;;;;4973379;28;20424;-88
2022/08/29 12:31:58;;;;;;;24.37;22.80;;;;;;;;;;4973721;28;20571;-88
2022/08/29 12:34:33;;;;;;;23.67;21.80;;;;;;;;;;4973248;28;20469;-78
2022/08/29 12:37:15;;;;;;;23.37;21.90;;;;;;;;;;4973048;28;20484;-83
2022/08/29 12:39:51;;;;;;;25.13;23.40;;;;;;;;;;5000255;28;20496;-96
2022/08/29 12:42:24;;;;;;;26.67;24.40;;;;;;;;;;5034288;28;20446;-78
2022/08/29 12:45:00;;;;;;;25.50;23.90;;;;;;;;;;5033713;28;20843;-78
2022/08/29 12:47:29;;;;;;;25.17;23.53;;;;;;;;;;5034138;28;20443;-84
2022/08/29 12:49:57;;;;;;;26.40;24.50;;;;;;;;;;5034375;28;20853;-79
2022/08/29 12:52:26;;;;;;;25.00;23.40;;;;;;;;;;5033494;28;20552;-76
2022/08/29 12:54:55;;;;;;;22.90;21.60;;;;;;;;;;5033508;28;20450;-78
2022/08/29 12:57:26;;;;;;;26.63;24.20;;;;;;;;;;5033671;28;20436;-77
2022/08/29 12:59:54;;;;;;;24.40;22.60;;;;;;;;;;5033638;28;20921;-79
2022/08/29 13:02:26;;;;;;;26.07;24.07;;;;;;;;;;5033869;28;20913;-91
2022/08/29 13:04:53;;;;;;;24.37;22.87;;;;;;;;;;5035150;28;20454;-83
2022/08/29 13:07:21;;;;;;;23.97;22.57;;;;;;;;;;5033312;28;20460;-81
2022/08/29 13:09:51;;;;;;;24.80;23.20;;;;;;;;;;5033230;28;20933;-80
2022/08/29 13:12:22;;;;;;;23.87;22.47;;;;;;;;;;5033018;28;20985;-81
2022/08/29 13:14:52;;;;;;;23.70;22.30;;;;;;;;;;5033380;28;20420;-81
2022/08/29 13:17:22;;;;;;;24.47;22.80;;;;;;;;;;5033370;28;20410;-80
2022/08/29 13:20:07;;;;;;;23.73;22.30;;;;;;;;;;5033354;28;20887;-81
2022/08/29 13:22:35;;;;;;;25.00;23.40;;;;;;;;;;5033185;28;20440;-81
2022/08/29 13:25:03;;;;;;;23.37;21.97;;;;;;;;;;5033118;28;20440;-81
2022/08/29 13:27:31;;;;;;;24.03;22.30;;;;;;;;;;5032951;28;20417;-81
2022/08/29 13:30:01;;;;;;;22.90;21.50;;;;;;;;;;5032881;28;20431;-80
2022/08/29 13:32:28;;;;;;;24.33;22.73;;;;;;;;;;5032551;28;20903;-82
2022/08/29 13:35:00;;;;;;;24.20;22.60;;;;;;;;;;5033051;28;20840;-81
2022/08/29 13:37:29;;;;;;;24.10;22.57;;;;;;;;;;5033118;28;20410;-79
2022/08/29 13:39:57;;;;;;;22.73;21.50;;;;;;;;;;5032953;28;20463;-81
2022/08/29 13:42:32;;;;;;;22.77;21.40;;;;;;;;;;5032869;28;20444;-81
2022/08/29 13:45:09;;;;;;;23.80;22.10;;;;;;;;;;5032940;28;20494;-80
2022/08/29 13:47:42;;;;;;;23.70;22.10;;;;;;;;;;5032523;28;20874;-81
2022/08/29 13:50:12;;;;;;;24.43;22.83;;;;;;;;;;5032540;28;20562;-80
2022/08/29 13:52:39;;;;;;;23.50;21.90;;;;;;;;;;5014646;28;20479;-81
2022/08/29 13:55:08;;;;;;;23.63;22.13;;;;;;;;;;5032501;28;20534;-81
2022/08/29 13:57:37;;;;;;;25.00;23.40;;;;;;;;;;5032831;28;20527;-80
2022/08/29 14:00:08;;;;;;;24.00;22.60;;;;;;;;;;5032605;28;20963;-81
2022/08/29 14:02:38;;;;;;;24.57;22.97;;;;;;;;;;5032385;28;20829;-80
2022/08/29 14:05:05;;;;;;;24.23;22.83;;;;;;;;;;5032771;28;20449;-81
2022/08/29 14:07:34;;;;;;;24.37;22.77;;;;;;;;;;5032577;28;20487;-81
2022/08/29 14:10:01;;;;;;;23.00;21.60;;;;;;;;;;5032527;28;20917;-81
2022/08/29 14:12:28;;;;;;;23.70;22.20;;;;;;;;;;5036273;28;20462;-82
2022/08/29 14:14:56;;;;;;;25.10;23.40;;;;;;;;;;5043609;28;20462;-81
2022/08/29 14:17:25;;;;;;;23.93;22.50;;;;;;;;;;5035097;28;20438;-82
2022/08/29 14:19:53;;;;;;;23.50;22.00;;;;;;;;;;5034490;28;20501;-82
2022/08/29 14:22:20;;;;;;;24.10;22.30;;;;;;;;;;5052201;28;20436;-81
2022/08/29 14:24:51;;;;;;;25.77;23.90;;;;;;;;;;5052674;28;20417;-81
2022/08/29 14:27:19;;;;;;;23.20;21.90;;;;;;;;;;5052388;28;20862;-82
2022/08/29 14:29:46;;;;;;;25.30;23.50;;;;;;;;;;5052134;28;20441;-82
2022/08/29 14:32:14;;;;;;;23.97;22.47;;;;;;;;;;5052382;28;20461;-88